createdAt,value
2019-04-14T00:02:11.867Z,36.40
2019-04-14T00:05:08.267Z,36.50
2019-04-14T00:08:02.402Z,36.50
2019-04-14T00:10:57.174Z,36.40
2019-04-14T00:13:50.500Z,36.40
2019-04-14T00:16:44.527Z,36.40
2019-04-14T00:19:37.343Z,36.30
2019-04-14T00:22:31.011Z,36.30
2019-04-14T00:25:24.472Z,36.20
2019-04-14T00:28:18.487Z,36.40
2019-04-14T00:31:13.081Z,36.30
2019-04-14T00:34:20.230Z,36.50
2019-04-14T00:37:34.403Z,36.30
2019-04-14T00:40:33.000Z,36.30
2019-04-14T00:43:43.885Z,36.40
2019-04-14T00:46:40.965Z,36.90
2019-04-14T00:49:35.339Z,36.50
2019-04-14T00:52:29.671Z,36.70
2019-04-14T00:55:23.067Z,36.60
2019-04-14T00:58:17.086Z,36.70
2019-04-14T01:01:11.308Z,36.70
2019-04-14T01:04:05.524Z,36.60
2019-04-14T01:07:00.322Z,36.70
2019-04-14T01:09:55.336Z,36.80
2019-04-14T01:12:49.649Z,36.70
2019-04-14T01:15:51.455Z,36.80
2019-04-14T01:18:36.807Z,36.90
2019-04-14T01:21:31.002Z,36.80
2019-04-14T01:24:24.987Z,36.90
2019-04-14T01:27:18.870Z,36.90
2019-04-14T01:30:13.234Z,36.90
2019-04-14T01:33:07.515Z,36.90
2019-04-14T01:36:01.758Z,36.90
2019-04-14T01:38:58.153Z,36.90
2019-04-14T01:41:52.085Z,36.90
2019-04-14T01:44:45.969Z,36.90
2019-04-14T01:47:39.941Z,36.90
2019-04-14T01:50:45.165Z,36.90
2019-04-14T01:53:57.384Z,37.00
2019-04-14T01:57:17.885Z,37.00
2019-04-14T02:00:38.133Z,37.00
2019-04-14T02:03:32.267Z,37.10
2019-04-14T02:06:27.062Z,37.10
2019-04-14T02:09:21.003Z,37.10
2019-04-14T02:12:14.861Z,37.10
2019-04-14T02:15:11.296Z,37.10
2019-04-14T02:18:05.638Z,37.20
2019-04-14T02:20:59.957Z,37.10
2019-04-14T02:23:53.985Z,37.10
2019-04-14T02:26:47.997Z,37.20
2019-04-14T02:29:41.073Z,37.10
2019-04-14T02:33:03.946Z,36.60
2019-04-14T02:36:10.169Z,37.20
2019-04-14T02:39:01.860Z,37.20
2019-04-14T02:41:47.356Z,37.20
2019-04-14T02:50:27.147Z,37.30
2019-04-14T02:53:30.137Z,37.20
2019-04-14T03:05:02.511Z,37.20
2019-04-14T03:13:52.122Z,37.10
2019-04-14T03:23:40.727Z,37.00
2019-04-14T03:26:33.776Z,37.10
2019-04-14T03:29:55.245Z,37.10
2019-04-14T03:33:13.859Z,37.00
2019-04-14T03:35:58.619Z,37.00
2019-04-14T03:38:26.651Z,37.00
2019-04-14T03:41:17.448Z,36.80
2019-04-14T03:44:01.254Z,36.80
2019-04-14T03:47:08.645Z,36.70
2019-04-14T03:50:00.814Z,36.60
2019-04-14T03:55:56.635Z,36.60
2019-04-14T03:58:44.965Z,36.60
2019-04-14T04:01:39.858Z,36.60
2019-04-14T04:04:33.762Z,36.60
2019-04-14T04:07:27.909Z,36.70
2019-04-14T04:10:24.638Z,36.70
2019-04-14T04:13:19.392Z,36.60
2019-04-14T04:16:27.178Z,36.60
2019-04-14T04:19:27.926Z,36.60
2019-04-14T04:22:39.650Z,36.60
2019-04-14T04:25:55.090Z,36.60
2019-04-14T04:29:09.145Z,36.70
2019-04-14T04:32:14.247Z,36.70
2019-04-14T04:35:19.573Z,36.80
2019-04-14T04:38:18.089Z,36.80
2019-04-14T04:41:12.463Z,36.70
2019-04-14T04:44:07.206Z,36.80
2019-04-14T04:47:03.395Z,36.80
2019-04-14T04:49:57.575Z,36.70
2019-04-14T04:52:51.759Z,36.90
2019-04-14T04:55:46.070Z,36.80
2019-04-14T04:58:41.333Z,36.80
2019-04-14T05:01:36.477Z,36.80
2019-04-14T05:04:30.823Z,36.80
2019-04-14T05:07:25.239Z,36.80
2019-04-14T05:10:28.554Z,36.70
2019-04-14T05:13:29.111Z,36.80
2019-04-14T05:16:23.765Z,36.80
2019-04-14T05:19:24.313Z,36.90
2019-04-14T05:22:11.304Z,36.80
2019-04-14T05:25:05.471Z,36.80
2019-04-14T05:28:00.434Z,36.80
2019-04-14T05:30:54.685Z,36.80
2019-04-14T05:33:49.026Z,36.90
2019-04-14T05:36:43.467Z,37.00
2019-04-14T05:39:37.476Z,36.90
2019-04-14T05:42:31.888Z,37.50
2019-04-14T05:45:26.175Z,37.00
2019-04-14T05:48:20.387Z,37.00
2019-04-14T05:51:15.329Z,37.00
2019-04-14T05:54:10.173Z,37.10
2019-04-14T05:57:04.488Z,36.40
2019-04-14T05:59:59.474Z,36.90
2019-04-14T06:02:53.010Z,37.00
2019-04-14T06:05:46.862Z,37.20
2019-04-14T06:08:41.790Z,37.20
2019-04-14T06:11:35.536Z,37.30
2019-04-14T06:14:28.781Z,37.30
2019-04-14T06:17:22.222Z,37.30
2019-04-14T06:20:16.289Z,37.40
2019-04-14T06:23:09.512Z,37.50
2019-04-14T06:26:03.381Z,37.50
2019-04-14T06:28:56.849Z,37.60
2019-04-14T06:32:23.214Z,37.50
2019-04-14T06:35:33.045Z,37.50
2019-04-14T06:38:33.008Z,37.40
2019-04-14T06:41:26.360Z,37.30
2019-04-14T06:44:19.073Z,37.30
2019-04-14T06:47:12.119Z,37.10
2019-04-14T06:50:05.078Z,37.10
2019-04-14T06:52:58.452Z,37.20
2019-04-14T06:55:51.510Z,37.10
2019-04-14T06:58:44.920Z,37.10
2019-04-14T07:01:38.999Z,37.10
2019-04-14T07:04:31.978Z,37.00
2019-04-14T07:07:25.578Z,37.00
2019-04-14T07:10:18.610Z,37.00
2019-04-14T07:13:13.949Z,36.90
2019-04-14T07:16:07.230Z,36.90
2019-04-14T07:19:00.221Z,36.80
2019-04-14T07:21:53.405Z,36.80
2019-04-14T07:24:46.285Z,36.80
2019-04-14T07:27:39.421Z,36.70
2019-04-14T07:30:51.813Z,36.90
2019-04-14T07:34:02.031Z,36.90
2019-04-14T07:37:13.759Z,36.80
2019-04-14T07:40:36.992Z,36.80
2019-04-14T07:43:38.805Z,36.90
2019-04-14T07:46:50.981Z,37.00
2019-04-14T07:50:13.670Z,36.70
2019-04-14T07:53:19.804Z,36.70
2019-04-14T07:56:33.707Z,36.60
2019-04-14T07:59:36.973Z,36.60
2019-04-14T08:02:51.108Z,36.60
2019-04-14T08:05:45.497Z,36.60
2019-04-14T08:08:39.607Z,36.60
2019-04-14T08:11:32.922Z,36.40
2019-04-14T08:14:26.628Z,36.40
2019-04-14T08:17:20.314Z,36.30
2019-04-14T08:20:26.409Z,36.10
2019-04-14T08:23:09.274Z,36.00
2019-04-14T08:26:04.611Z,36.00
2019-04-14T08:28:57.720Z,36.00
2019-04-14T08:31:51.530Z,36.00
2019-04-14T08:34:46.409Z,35.90
2019-04-14T08:37:39.741Z,35.80
2019-04-14T08:40:33.253Z,35.80
2019-04-14T08:43:54.672Z,35.80
2019-04-14T08:47:05.686Z,35.70
2019-04-14T08:50:06.744Z,35.70
2019-04-14T08:53:04.105Z,36.30
2019-04-14T08:56:31.089Z,35.60
2019-04-14T08:59:45.230Z,35.50
2019-04-14T09:02:52.030Z,35.50
2019-04-14T09:06:01.280Z,35.30
2019-04-14T09:08:59.446Z,35.20
2019-04-14T09:11:56.498Z,35.20
2019-04-14T09:14:56.832Z,35.10
2019-04-14T09:17:44.945Z,35.20
2019-04-14T09:20:37.726Z,35.00
2019-04-14T09:23:30.890Z,35.10
2019-04-14T09:26:27.369Z,34.90
2019-04-14T09:29:21.460Z,35.60
2019-04-14T09:32:15.829Z,35.10
2019-04-14T09:35:10.947Z,35.00
2019-04-14T09:38:05.415Z,34.90
2019-04-14T09:41:01.014Z,34.90
2019-04-14T09:43:55.638Z,34.90
2019-04-14T09:46:50.306Z,35.00
2019-04-14T09:49:44.345Z,34.90
2019-04-14T09:52:38.307Z,34.70
2019-04-14T09:55:31.655Z,34.70
2019-04-14T09:58:25.285Z,34.80
2019-04-14T10:01:18.328Z,34.60
2019-04-14T10:04:13.258Z,34.80
2019-04-14T10:07:08.125Z,34.80
2019-04-14T10:10:02.288Z,34.80
2019-04-14T10:12:56.812Z,34.70
2019-04-14T10:15:49.666Z,34.80
2019-04-14T10:18:42.406Z,34.70
2019-04-14T10:21:36.156Z,34.80
2019-04-14T10:24:34.553Z,34.80
2019-04-14T10:27:29.313Z,34.70
2019-04-14T10:30:22.421Z,34.80
2019-04-14T10:33:16.477Z,34.80
2019-04-14T10:36:09.559Z,34.90
2019-04-14T10:39:03.520Z,34.90
2019-04-14T10:41:57.692Z,34.80
2019-04-14T10:44:51.586Z,34.80
2019-04-14T10:47:45.245Z,34.90
2019-04-14T10:50:40.154Z,34.80
2019-04-14T10:53:33.519Z,34.90
2019-04-14T10:56:27.636Z,34.90
2019-04-14T10:59:22.399Z,34.90
2019-04-14T11:02:15.930Z,35.00
2019-04-14T11:05:09.302Z,35.00
2019-04-14T11:08:03.834Z,34.90
2019-04-14T11:10:56.971Z,34.90
2019-04-14T11:13:50.390Z,34.90
2019-04-14T11:16:43.278Z,34.80
2019-04-14T11:19:37.602Z,34.80
2019-04-14T11:22:30.860Z,34.70
2019-04-14T11:25:25.085Z,34.90
2019-04-14T11:28:18.287Z,34.90
2019-04-14T11:31:11.225Z,34.90
2019-04-14T11:34:04.619Z,34.90
2019-04-14T11:37:10.624Z,34.90
2019-04-14T11:40:05.479Z,34.90
2019-04-14T11:42:59.022Z,34.80
2019-04-14T11:45:51.971Z,34.90
2019-04-14T11:48:44.983Z,34.90
2019-04-14T11:51:39.345Z,34.90
2019-04-14T11:54:32.313Z,35.80
2019-04-14T11:57:25.551Z,34.90
2019-04-14T12:00:32.011Z,35.00
2019-04-14T12:03:34.324Z,34.90
2019-04-14T12:06:53.212Z,35.00
2019-04-14T12:09:52.120Z,35.00
2019-04-14T12:12:45.964Z,35.20
2019-04-14T12:15:39.246Z,35.20
2019-04-14T12:18:32.864Z,35.10
2019-04-14T12:21:26.582Z,35.20
2019-04-14T12:24:20.645Z,35.20
2019-04-14T12:27:14.525Z,35.40
2019-04-14T12:30:11.111Z,35.20
2019-04-14T12:33:05.552Z,35.30
2019-04-14T12:35:59.732Z,35.30
2019-04-14T12:38:53.504Z,35.30
2019-04-14T12:41:52.315Z,35.30
2019-04-14T12:45:21.483Z,35.40
2019-04-14T12:48:44.675Z,35.40
2019-04-14T12:51:40.252Z,35.50
2019-04-14T12:54:33.132Z,35.60
2019-04-14T12:57:35.252Z,35.50
2019-04-14T13:00:37.429Z,35.50
2019-04-14T13:03:31.341Z,35.50
2019-04-14T13:06:26.102Z,35.60
2019-04-14T13:09:22.179Z,35.60
2019-04-14T13:12:16.332Z,35.40
2019-04-14T13:15:12.782Z,35.60
2019-04-14T13:18:05.949Z,35.60
2019-04-14T13:20:59.695Z,35.60
2019-04-14T13:23:53.791Z,35.60
2019-04-14T13:26:46.703Z,35.60
2019-04-14T13:29:39.649Z,35.50
2019-04-14T13:32:36.115Z,35.70
2019-04-14T13:35:26.831Z,35.60
2019-04-14T13:38:20.678Z,35.60
2019-04-14T13:41:14.981Z,35.30
2019-04-14T13:44:07.990Z,34.90
2019-04-14T13:47:01.006Z,34.90
2019-04-14T13:49:53.854Z,34.70
2019-04-14T13:52:48.746Z,34.70
2019-04-14T13:55:41.835Z,34.70
2019-04-14T13:58:38.124Z,34.70
2019-04-14T14:01:29.947Z,34.60
2019-04-14T14:04:23.415Z,34.60
2019-04-14T14:07:16.835Z,34.60
2019-04-14T14:10:11.295Z,34.50
2019-04-14T14:13:12.030Z,34.50
2019-04-14T14:16:38.200Z,34.40
2019-04-14T14:19:52.657Z,34.60
2019-04-14T14:23:01.885Z,34.60
2019-04-14T14:26:00.270Z,34.40
2019-04-14T14:28:53.624Z,34.30
2019-04-14T14:31:47.821Z,34.20
2019-04-14T14:34:42.178Z,34.30
2019-04-14T14:37:35.974Z,34.30
2019-04-14T14:40:30.374Z,34.30
2019-04-14T14:43:25.035Z,34.20
2019-04-14T14:46:29.008Z,34.30
2019-04-14T14:49:26.633Z,34.20
2019-04-14T14:52:21.954Z,34.20
2019-04-14T14:55:16.027Z,34.30
2019-04-14T14:58:09.376Z,34.40
2019-04-14T15:01:03.215Z,34.50
2019-04-14T15:03:57.842Z,34.50
2019-04-14T15:06:52.265Z,34.50
2019-04-14T15:09:45.716Z,34.60
2019-04-14T15:12:39.487Z,34.60
2019-04-14T15:15:34.564Z,34.60
2019-04-14T15:18:29.596Z,34.60
2019-04-14T15:21:24.084Z,35.00
2019-04-14T15:24:18.822Z,34.80
2019-04-14T15:27:12.019Z,34.80
2019-04-14T15:30:06.577Z,34.90
2019-04-14T15:32:59.796Z,34.90
2019-04-14T15:35:53.124Z,34.90
2019-04-14T15:38:46.194Z,34.90
2019-04-14T15:41:41.118Z,34.90
2019-04-14T15:44:33.851Z,34.90
2019-04-14T15:47:26.825Z,34.90
2019-04-14T15:50:20.698Z,35.00
2019-04-14T15:53:13.720Z,35.00
2019-04-14T15:56:07.329Z,35.10
2019-04-14T15:59:06.139Z,35.10
2019-04-14T16:02:12.810Z,35.20
2019-04-14T16:05:12.681Z,35.20
2019-04-14T16:08:17.244Z,35.20
2019-04-14T16:11:35.325Z,35.20
2019-04-14T16:15:01.738Z,35.30
2019-04-14T16:18:12.185Z,35.40
2019-04-14T16:21:06.345Z,35.30
2019-04-14T16:24:00.431Z,35.20
2019-04-14T16:27:03.944Z,35.40
2019-04-14T16:30:24.293Z,35.30
2019-04-14T16:33:32.586Z,35.30
2019-04-14T16:36:26.515Z,35.40
2019-04-14T16:39:20.004Z,35.40
2019-04-14T16:42:13.253Z,35.30
2019-04-14T16:45:06.869Z,35.40
2019-04-14T16:48:00.736Z,35.40
2019-04-14T16:50:53.951Z,35.30
2019-04-14T16:53:47.987Z,35.30
2019-04-14T16:57:02.154Z,35.20
2019-04-14T16:59:56.045Z,35.30
2019-04-14T17:02:50.243Z,35.20
2019-04-14T17:05:43.732Z,35.20
2019-04-14T17:08:39.379Z,35.20
2019-04-14T17:11:32.246Z,35.30
2019-04-14T17:14:39.849Z,35.10
2019-04-14T17:17:56.968Z,35.40
2019-04-14T17:21:14.191Z,35.30
2019-04-14T17:24:16.673Z,35.20
2019-04-14T17:27:34.239Z,35.10
2019-04-14T17:30:36.739Z,35.20
2019-04-14T17:33:51.005Z,35.10
2019-04-14T17:36:52.763Z,35.10
2019-04-14T17:39:50.429Z,35.20
2019-04-14T17:42:52.197Z,35.10
2019-04-14T17:45:52.254Z,35.00
2019-04-14T17:49:02.458Z,35.10
2019-04-14T17:52:12.713Z,35.10
2019-04-14T17:55:14.804Z,35.20
2019-04-14T17:58:25.921Z,35.30
2019-04-14T18:01:43.187Z,35.30
2019-04-14T18:05:11.299Z,35.30
2019-04-14T18:08:19.719Z,35.30
2019-04-14T18:11:30.686Z,35.10
2019-04-14T18:14:30.537Z,35.20
2019-04-14T18:17:43.538Z,35.20
2019-04-14T18:20:58.711Z,35.20
2019-04-14T18:23:52.327Z,35.30
2019-04-14T18:26:46.552Z,35.20
2019-04-14T18:29:50.950Z,35.20
2019-04-14T18:33:09.427Z,35.90
2019-04-14T18:36:11.760Z,35.20
2019-04-14T18:39:26.862Z,35.30
2019-04-14T18:42:30.712Z,35.20
2019-04-14T18:45:31.459Z,35.20
2019-04-14T18:48:41.977Z,35.30
2019-04-14T18:51:52.573Z,35.40
2019-04-14T18:55:04.736Z,34.80
2019-04-14T18:58:13.180Z,35.50
2019-04-14T19:01:11.185Z,36.30
2019-04-14T19:04:06.547Z,35.50
2019-04-14T19:07:00.103Z,35.50
2019-04-14T19:09:53.682Z,35.50
2019-04-14T19:13:10.712Z,35.20
2019-04-14T19:16:08.717Z,35.40
2019-04-14T19:19:03.512Z,35.60
2019-04-14T19:21:57.241Z,35.60
2019-04-14T19:24:50.531Z,35.70
2019-04-14T19:27:44.058Z,35.70
2019-04-14T19:30:37.179Z,35.70
2019-04-14T19:33:30.743Z,35.70
2019-04-14T19:36:24.474Z,35.80
2019-04-14T19:39:18.364Z,35.90
2019-04-14T19:42:11.811Z,35.80
2019-04-14T19:45:05.834Z,35.90
2019-04-14T19:47:59.584Z,35.90
2019-04-14T19:50:53.188Z,35.90
2019-04-14T19:53:46.284Z,36.00
2019-04-14T19:56:39.594Z,35.70
2019-04-14T19:59:32.736Z,35.80
2019-04-14T20:02:26.307Z,35.90
2019-04-14T20:05:19.989Z,35.80
2019-04-14T20:08:13.341Z,36.00
2019-04-14T20:11:07.019Z,36.00
2019-04-14T20:14:00.764Z,36.00
2019-04-14T20:17:06.541Z,36.10
2019-04-14T20:20:18.794Z,36.00
2019-04-14T20:23:22.241Z,36.10
2019-04-14T20:26:31.996Z,36.10
2019-04-14T20:29:47.275Z,36.20
2019-04-14T20:32:43.129Z,36.10
2019-04-14T20:35:37.017Z,36.20
2019-04-14T20:38:30.636Z,36.20
2019-04-14T20:41:23.914Z,36.30
2019-04-14T20:44:17.551Z,36.30
2019-04-14T20:47:11.612Z,36.30
2019-04-14T20:50:05.006Z,36.30
2019-04-14T20:52:59.150Z,36.30
2019-04-14T20:55:52.192Z,36.40
2019-04-14T20:58:45.232Z,36.50
2019-04-14T21:01:40.918Z,36.50
2019-04-14T21:04:50.870Z,36.40
2019-04-14T21:08:17.491Z,36.40
2019-04-14T21:11:34.964Z,36.70
2019-04-14T21:14:48.967Z,36.40
2019-04-14T21:17:52.547Z,36.50
2019-04-14T21:21:10.023Z,36.60
2019-04-14T21:24:19.399Z,36.60
2019-04-14T21:27:32.083Z,36.50
2019-04-14T21:30:34.779Z,36.50
2019-04-14T21:33:44.798Z,36.50
2019-04-14T21:36:47.153Z,36.60
2019-04-14T21:40:13.969Z,36.60
2019-04-14T21:43:07.436Z,36.60
2019-04-14T21:46:01.325Z,36.60
2019-04-14T21:48:54.950Z,36.60
2019-04-14T21:52:01.364Z,36.60
2019-04-14T21:54:54.529Z,36.60
2019-04-14T21:58:08.723Z,36.60
2019-04-14T22:01:45.621Z,36.70
2019-04-14T22:05:09.263Z,36.70
2019-04-14T22:08:15.423Z,37.30
2019-04-14T22:11:11.087Z,36.80
2019-04-14T22:14:05.179Z,36.80
2019-04-14T22:16:58.692Z,36.60
2019-04-14T22:19:52.342Z,36.80
2019-04-14T22:22:46.248Z,36.70
2019-04-14T22:25:40.259Z,36.80
2019-04-14T22:28:33.486Z,36.80
2019-04-14T22:31:26.944Z,36.80
2019-04-14T22:34:20.184Z,36.80
2019-04-14T22:37:14.034Z,36.80
2019-04-14T22:40:08.806Z,36.90
2019-04-14T22:43:02.654Z,36.70
2019-04-14T22:45:56.445Z,36.80
2019-04-14T22:48:50.438Z,36.80
2019-04-14T22:51:44.099Z,37.20
2019-04-14T22:54:37.646Z,36.80
2019-04-14T22:57:31.665Z,37.00
2019-04-14T23:01:02.056Z,36.90
2019-04-14T23:04:24.371Z,36.90
2019-04-14T23:07:43.944Z,36.90
2019-04-14T23:11:00.750Z,36.90
2019-04-14T23:14:10.300Z,36.90
2019-04-14T23:17:21.093Z,37.00
2019-04-14T23:20:17.589Z,36.90
2019-04-14T23:23:15.262Z,37.00
2019-04-14T23:26:08.758Z,36.90
2019-04-14T23:29:01.451Z,36.90
2019-04-14T23:31:54.450Z,37.00
2019-04-14T23:34:47.598Z,37.00
2019-04-14T23:37:40.826Z,36.50
2019-04-14T23:40:34.398Z,36.70
2019-04-14T23:43:28.529Z,36.80
2019-04-14T23:46:22.157Z,36.80
2019-04-14T23:49:15.985Z,36.80
2019-04-14T23:52:08.982Z,36.90
2019-04-14T23:55:02.338Z,36.80
2019-04-14T23:57:55.899Z,36.90
